createdAt,value
2023-02-18T00:00:06.799Z,5.00
2023-02-18T00:01:10.225Z,4.50
2023-02-18T00:02:13.672Z,3.00
2023-02-18T00:03:17.349Z,4.50
2023-02-18T00:04:20.923Z,6.50
2023-02-18T00:05:24.412Z,5.00
2023-02-18T00:06:27.826Z,4.00
2023-02-18T00:07:31.309Z,4.00
2023-02-18T00:08:34.766Z,4.00
2023-02-18T00:09:38.323Z,4.00
2023-02-18T00:10:41.781Z,3.75
2023-02-18T00:11:45.237Z,3.50
2023-02-18T00:12:48.629Z,3.00
2023-02-18T00:13:52.146Z,3.75
2023-02-18T00:14:55.632Z,4.00
2023-02-18T00:15:59.044Z,4.00
2023-02-18T00:17:02.573Z,4.50
2023-02-18T00:18:06.130Z,4.50
2023-02-18T00:19:09.771Z,4.00
2023-02-18T00:20:13.206Z,3.50
2023-02-18T00:21:16.825Z,4.00
2023-02-18T00:22:20.216Z,4.50
2023-02-18T00:23:23.749Z,4.50
2023-02-18T00:24:27.256Z,4.25
2023-02-18T00:25:30.790Z,4.25
2023-02-18T00:26:34.290Z,4.00
2023-02-18T00:27:37.721Z,4.00
2023-02-18T00:28:41.276Z,3.75
2023-02-18T00:29:44.778Z,4.00
2023-02-18T00:30:48.273Z,3.50
2023-02-18T00:31:51.951Z,4.00
2023-02-18T00:32:55.441Z,5.50
2023-02-18T00:33:58.937Z,4.60
2023-02-18T00:35:02.674Z,4.50
2023-02-18T00:36:06.494Z,5.00
2023-02-18T00:37:10.268Z,5.00
2023-02-18T00:38:13.744Z,4.00
2023-02-18T00:39:17.342Z,5.50
2023-02-18T00:40:20.924Z,5.50
2023-02-18T00:41:25.978Z,4.75
2023-02-18T00:42:29.003Z,5.00
2023-02-18T00:43:32.415Z,5.00
2023-02-18T00:44:36.271Z,5.50
2023-02-18T00:45:39.737Z,4.00
2023-02-18T00:46:43.189Z,4.00
2023-02-18T00:47:46.698Z,4.00
2023-02-18T00:48:50.137Z,4.00
2023-02-18T00:49:53.693Z,5.00
2023-02-18T00:50:57.162Z,4.75
2023-02-18T00:52:00.595Z,4.25
2023-02-18T00:53:04.996Z,4.00
2023-02-18T00:54:08.472Z,4.00
2023-02-18T00:55:11.922Z,5.50
2023-02-18T00:56:15.322Z,5.50
2023-02-18T00:57:18.915Z,4.50
2023-02-18T00:58:22.313Z,4.50
2023-02-18T00:59:25.899Z,5.50
2023-02-18T01:00:29.298Z,5.25
2023-02-18T01:01:32.760Z,4.50
2023-02-18T01:02:39.251Z,6.00
2023-02-18T01:03:42.869Z,5.75
2023-02-18T01:04:46.491Z,5.00
2023-02-18T01:05:49.966Z,4.75
2023-02-18T01:06:53.619Z,4.75
2023-02-18T01:07:57.369Z,5.00
2023-02-18T01:09:01.096Z,5.50
2023-02-18T01:10:04.847Z,6.00
2023-02-18T01:11:10.725Z,5.50
2023-02-18T01:12:16.559Z,4.50
2023-02-18T01:13:20.212Z,5.00
2023-02-18T01:14:23.997Z,5.50
2023-02-18T01:15:28.434Z,5.50
2023-02-18T01:16:32.255Z,6.50
2023-02-18T01:17:36.440Z,5.50
2023-02-18T01:18:40.067Z,5.25
2023-02-18T01:19:43.540Z,5.50
2023-02-18T01:20:47.041Z,6.00
2023-02-18T01:21:54.206Z,5.25
2023-02-18T01:24:19.020Z,4.25
2023-02-18T01:25:22.647Z,4.00
2023-02-18T01:26:26.378Z,4.50
2023-02-18T01:27:30.104Z,5.00
2023-02-18T01:28:33.655Z,4.50
2023-02-18T01:29:37.313Z,5.75
2023-02-18T01:30:43.945Z,6.00
2023-02-18T01:31:47.575Z,5.25
2023-02-18T01:32:51.429Z,4.25
2023-02-18T01:33:54.839Z,4.50
2023-02-18T01:34:58.265Z,5.00
2023-02-18T01:36:02.006Z,5.25
2023-02-18T01:37:05.670Z,5.67
2023-02-18T01:38:09.447Z,5.75
2023-02-18T01:39:13.033Z,5.00
2023-02-18T01:40:16.454Z,4.75
2023-02-18T01:41:19.897Z,5.25
2023-02-18T01:42:23.700Z,5.00
2023-02-18T01:43:27.291Z,5.00
2023-02-18T01:44:30.784Z,4.50
2023-02-18T01:45:34.289Z,4.25
2023-02-18T01:46:37.684Z,4.50
2023-02-18T01:47:41.099Z,4.75
2023-02-18T01:48:44.568Z,5.00
2023-02-18T01:49:48.026Z,4.75
2023-02-18T01:50:51.421Z,5.00
2023-02-18T01:51:54.802Z,5.00
2023-02-18T01:52:58.339Z,4.50
2023-02-18T01:54:01.874Z,4.60
2023-02-18T01:55:05.574Z,4.75
2023-02-18T01:56:09.535Z,4.00
2023-02-18T01:57:13.457Z,5.00
2023-02-18T01:58:17.050Z,6.00
2023-02-18T01:59:20.394Z,8.75
2023-02-18T02:00:23.807Z,8.50
2023-02-18T02:01:27.348Z,5.00
2023-02-18T02:02:30.780Z,5.50
2023-02-18T02:03:34.227Z,6.00
2023-02-18T02:04:37.727Z,5.75
2023-02-18T02:05:41.374Z,5.00
2023-02-18T02:06:46.432Z,5.50
2023-02-18T02:07:51.926Z,5.00
2023-02-18T02:08:57.606Z,4.25
2023-02-18T02:10:01.133Z,5.00
2023-02-18T02:11:04.525Z,5.00
2023-02-18T02:12:07.996Z,6.00
2023-02-18T02:13:11.439Z,5.75
2023-02-18T02:14:14.878Z,4.60
2023-02-18T02:15:18.538Z,4.50
2023-02-18T02:16:22.181Z,4.50
2023-02-18T02:17:27.229Z,5.50
2023-02-18T02:18:30.727Z,7.75
2023-02-18T02:19:34.552Z,5.50
2023-02-18T02:20:37.909Z,5.75
2023-02-18T02:21:41.358Z,5.50
2023-02-18T02:22:44.979Z,4.00
2023-02-18T02:23:48.493Z,4.50
2023-02-18T02:24:51.914Z,5.00
2023-02-18T02:25:55.369Z,5.50
2023-02-18T02:26:58.991Z,5.00
2023-02-18T02:28:02.682Z,5.33
2023-02-18T02:29:06.404Z,4.50
2023-02-18T02:30:10.252Z,3.50
2023-02-18T02:31:13.760Z,5.00
2023-02-18T02:32:17.536Z,4.50
2023-02-18T02:33:21.128Z,4.50
2023-02-18T02:34:24.901Z,5.00
2023-02-18T02:35:28.381Z,5.50
2023-02-18T02:36:31.802Z,5.00
2023-02-18T02:37:35.584Z,5.00
2023-02-18T02:38:38.987Z,4.50
2023-02-18T02:39:42.861Z,5.00
2023-02-18T02:40:46.444Z,4.50
2023-02-18T02:41:50.022Z,4.25
2023-02-18T02:42:53.570Z,5.00
2023-02-18T02:43:57.030Z,4.50
2023-02-18T02:45:00.528Z,5.00
2023-02-18T02:46:04.550Z,5.50
2023-02-18T02:47:08.097Z,5.50
2023-02-18T02:48:11.476Z,6.00
2023-02-18T02:49:14.869Z,5.00
2023-02-18T02:50:18.392Z,4.75
2023-02-18T02:51:21.807Z,6.50
2023-02-18T02:52:25.277Z,5.50
2023-02-18T02:53:28.719Z,5.75
2023-02-18T02:54:32.299Z,5.25
2023-02-18T02:55:35.792Z,5.50
2023-02-18T02:56:39.265Z,5.00
2023-02-18T02:57:42.714Z,5.50
2023-02-18T02:58:46.308Z,6.50
2023-02-18T02:59:51.379Z,6.00
2023-02-18T03:01:03.688Z,6.00
2023-02-18T03:02:07.466Z,6.25
2023-02-18T03:03:10.980Z,7.75
2023-02-18T03:04:14.665Z,7.25
2023-02-18T03:05:19.005Z,7.25
2023-02-18T03:06:22.860Z,6.50
2023-02-18T03:07:26.554Z,7.00
2023-02-18T03:08:30.301Z,6.50
2023-02-18T03:09:34.059Z,7.50
2023-02-18T03:10:37.638Z,6.25
2023-02-18T03:11:41.325Z,6.50
2023-02-18T03:12:45.116Z,7.75
2023-02-18T03:13:48.494Z,6.67
2023-02-18T03:14:52.018Z,6.75
2023-02-18T03:16:04.503Z,6.50
2023-02-18T03:17:08.315Z,5.50
2023-02-18T03:18:12.282Z,7.50
2023-02-18T03:19:15.855Z,7.00
2023-02-18T03:20:19.322Z,7.50
2023-02-18T03:21:22.814Z,7.50
2023-02-18T03:23:47.797Z,6.00
2023-02-18T03:24:51.472Z,6.50
2023-02-18T03:25:56.598Z,5.75
2023-02-18T03:27:03.719Z,6.00
2023-02-18T03:28:07.500Z,6.00
2023-02-18T03:29:11.389Z,5.00
2023-02-18T03:30:15.451Z,6.50
2023-02-18T03:31:19.155Z,5.75
2023-02-18T03:32:22.660Z,5.75
2023-02-18T03:33:26.497Z,5.00
2023-02-18T03:34:30.996Z,5.00
2023-02-18T03:35:35.054Z,6.75
2023-02-18T03:36:38.759Z,6.25
2023-02-18T03:37:42.533Z,6.00
2023-02-18T03:38:49.704Z,6.00
2023-02-18T03:39:53.552Z,6.50
2023-02-18T03:40:57.387Z,7.00
2023-02-18T03:42:01.135Z,6.00
2023-02-18T03:43:04.678Z,5.50
2023-02-18T03:44:08.285Z,6.50
2023-02-18T03:45:16.792Z,7.00
2023-02-18T03:46:20.598Z,5.50
2023-02-18T03:47:24.184Z,6.00
2023-02-18T03:48:29.447Z,5.75
2023-02-18T03:49:32.568Z,5.75
2023-02-18T03:50:36.022Z,6.50
2023-02-18T03:51:39.460Z,6.00
2023-02-18T03:52:43.005Z,6.50
2023-02-18T03:53:46.481Z,6.50
2023-02-18T03:54:49.974Z,6.50
2023-02-18T03:55:53.484Z,6.25
2023-02-18T03:56:56.941Z,6.50
2023-02-18T03:58:00.873Z,6.50
2023-02-18T03:59:04.626Z,6.50
2023-02-18T04:00:08.244Z,5.75
2023-02-18T04:01:12.058Z,4.50
2023-02-18T04:02:15.950Z,5.00
2023-02-18T04:03:19.596Z,5.00
2023-02-18T04:04:23.428Z,5.25
2023-02-18T04:05:27.265Z,7.00
2023-02-18T04:06:30.995Z,6.50
2023-02-18T04:07:34.596Z,5.00
2023-02-18T04:08:37.995Z,4.50
2023-02-18T04:09:41.790Z,5.50
2023-02-18T04:10:45.567Z,5.00
2023-02-18T04:11:50.872Z,4.00
2023-02-18T04:13:10.815Z,4.00
2023-02-18T04:14:14.187Z,4.25
2023-02-18T04:15:17.787Z,4.50
2023-02-18T04:16:21.312Z,4.50
2023-02-18T04:17:24.887Z,5.00
2023-02-18T04:18:28.468Z,5.00
2023-02-18T04:19:31.843Z,5.00
2023-02-18T04:20:35.335Z,4.00
2023-02-18T04:21:38.891Z,4.25
2023-02-18T04:22:42.662Z,4.25
2023-02-18T04:23:45.992Z,4.50
2023-02-18T04:24:49.519Z,4.25
2023-02-18T04:25:53.139Z,5.50
2023-02-18T04:26:56.608Z,5.00
2023-02-18T04:28:00.145Z,5.00
2023-02-18T04:29:03.600Z,5.00
2023-02-18T04:30:10.248Z,5.00
2023-02-18T04:31:13.857Z,5.25
2023-02-18T04:32:17.497Z,4.50
2023-02-18T04:33:21.014Z,4.50
2023-02-18T04:34:25.052Z,4.75
2023-02-18T04:35:28.684Z,4.50
2023-02-18T04:36:32.120Z,3.25
2023-02-18T04:37:35.827Z,3.00
2023-02-18T04:38:39.671Z,4.00
2023-02-18T04:39:43.310Z,4.25
2023-02-18T04:40:47.144Z,4.50
2023-02-18T04:41:50.652Z,4.00
2023-02-18T04:42:54.324Z,4.00
2023-02-18T04:43:58.060Z,5.00
2023-02-18T04:45:01.636Z,5.00
2023-02-18T04:46:05.083Z,4.00
2023-02-18T04:47:08.565Z,5.50
2023-02-18T04:48:12.013Z,5.00
2023-02-18T04:49:15.450Z,4.00
2023-02-18T04:50:19.039Z,3.25
2023-02-18T04:51:22.477Z,3.50
2023-02-18T04:52:27.215Z,3.50
2023-02-18T04:53:30.971Z,4.50
2023-02-18T04:54:34.526Z,5.00
2023-02-18T04:55:37.992Z,3.75
2023-02-18T04:56:41.565Z,4.50
2023-02-18T04:57:45.024Z,4.50
2023-02-18T04:58:48.533Z,5.50
2023-02-18T04:59:52.100Z,5.25
2023-02-18T05:00:55.537Z,4.00
2023-02-18T05:01:58.952Z,4.25
2023-02-18T05:03:02.420Z,5.00
2023-02-18T05:04:09.450Z,5.00
2023-02-18T05:05:13.175Z,4.75
2023-02-18T05:06:16.933Z,4.00
2023-02-18T05:07:20.422Z,4.00
2023-02-18T05:08:23.854Z,4.50
2023-02-18T05:09:27.519Z,5.00
2023-02-18T05:10:31.030Z,5.00
2023-02-18T05:11:34.460Z,5.00
2023-02-18T05:12:37.930Z,4.00
2023-02-18T05:13:41.864Z,4.75
2023-02-18T05:14:45.372Z,5.25
2023-02-18T05:15:48.876Z,6.00
2023-02-18T05:16:53.589Z,5.75
2023-02-18T05:17:57.326Z,6.00
2023-02-18T05:19:01.150Z,6.00
2023-02-18T05:20:05.140Z,5.50
2023-02-18T05:21:08.926Z,6.00
2023-02-18T05:22:12.429Z,5.00
2023-02-18T05:23:16.194Z,5.50
2023-02-18T05:24:19.778Z,5.00
2023-02-18T05:25:23.237Z,5.25
2023-02-18T05:26:26.649Z,5.00
2023-02-18T05:27:30.142Z,4.50
2023-02-18T05:28:33.620Z,5.00
2023-02-18T05:29:37.083Z,5.00
2023-02-18T05:30:40.523Z,5.00
2023-02-18T05:31:44.310Z,4.50
2023-02-18T05:32:47.944Z,5.00
2023-02-18T05:33:51.445Z,5.25
2023-02-18T05:34:56.482Z,4.50
2023-02-18T05:35:59.990Z,5.00
2023-02-18T05:37:03.620Z,4.25
2023-02-18T05:38:07.140Z,3.00
2023-02-18T05:39:12.600Z,3.75
2023-02-18T05:40:16.040Z,4.50
2023-02-18T05:41:21.650Z,4.25
2023-02-18T05:42:25.540Z,5.50
2023-02-18T05:43:38.334Z,7.00
2023-02-18T05:44:42.282Z,5.00
2023-02-18T05:45:45.805Z,4.00
2023-02-18T05:46:49.443Z,5.25
2023-02-18T05:47:53.038Z,3.50
2023-02-18T05:48:56.559Z,5.00
2023-02-18T05:50:00.266Z,4.00
2023-02-18T05:51:03.998Z,4.50
2023-02-18T05:52:07.416Z,5.50
2023-02-18T05:53:11.006Z,5.25
2023-02-18T05:54:14.619Z,5.50
2023-02-18T05:55:18.194Z,4.50
2023-02-18T05:56:21.708Z,4.00
2023-02-18T05:57:25.194Z,4.00
2023-02-18T05:58:33.238Z,5.00
2023-02-18T05:59:36.939Z,4.50
2023-02-18T06:00:40.612Z,4.00
2023-02-18T06:01:44.276Z,4.50
2023-02-18T06:02:48.161Z,4.00
2023-02-18T06:03:51.861Z,3.25
2023-02-18T06:06:20.857Z,3.50
2023-02-18T06:07:24.357Z,3.75
2023-02-18T06:08:27.974Z,2.75
2023-02-18T06:09:31.643Z,4.50
2023-02-18T06:11:59.291Z,3.50
2023-02-18T06:13:02.755Z,3.25
2023-02-18T06:14:08.013Z,4.00
2023-02-18T06:15:11.485Z,4.00
2023-02-18T06:16:15.159Z,3.50
2023-02-18T06:17:18.829Z,4.00
2023-02-18T06:18:22.363Z,4.00
2023-02-18T06:19:26.046Z,4.50
2023-02-18T06:20:30.609Z,3.75
2023-02-18T06:21:38.382Z,3.50
2023-02-18T06:22:41.879Z,4.00
2023-02-18T06:23:45.304Z,3.00
2023-02-18T06:24:49.132Z,3.25
2023-02-18T06:25:52.999Z,3.25
2023-02-18T06:26:56.662Z,3.50
2023-02-18T06:28:00.503Z,2.25
2023-02-18T06:29:04.243Z,2.50
2023-02-18T06:30:07.979Z,3.00
2023-02-18T06:31:11.727Z,3.00
2023-02-18T06:32:15.674Z,3.50
2023-02-18T06:33:19.354Z,3.00
2023-02-18T06:34:23.221Z,3.00
2023-02-18T06:35:26.915Z,2.00
2023-02-18T06:36:30.768Z,1.50
2023-02-18T06:37:34.572Z,2.50
2023-02-18T06:38:38.231Z,3.00
2023-02-18T06:39:41.894Z,2.75
2023-02-18T06:40:45.752Z,2.25
2023-02-18T06:41:49.705Z,3.00
2023-02-18T06:42:53.648Z,1.50
2023-02-18T06:43:57.449Z,2.50
2023-02-18T06:45:01.216Z,2.75
2023-02-18T06:46:04.993Z,3.00
2023-02-18T06:47:08.875Z,2.50
2023-02-18T06:48:12.373Z,2.25
2023-02-18T06:49:16.305Z,1.75
2023-02-18T06:50:20.156Z,2.00
2023-02-18T06:51:23.659Z,2.25
2023-02-18T06:52:27.097Z,2.00
2023-02-18T06:53:30.653Z,2.00
2023-02-18T06:54:34.165Z,2.00
2023-02-18T06:55:37.559Z,2.50
2023-02-18T06:56:41.057Z,2.00
2023-02-18T06:57:45.016Z,2.20
2023-02-18T06:58:48.444Z,1.50
2023-02-18T06:59:51.863Z,2.00
2023-02-18T07:00:55.401Z,2.75
2023-02-18T07:01:58.907Z,3.00
2023-02-18T07:03:02.377Z,3.00
2023-02-18T07:04:06.120Z,3.00
2023-02-18T07:05:09.833Z,3.25
2023-02-18T07:06:13.294Z,3.25
2023-02-18T07:07:16.838Z,3.00
2023-02-18T07:08:21.826Z,3.50
2023-02-18T07:09:25.415Z,3.50
2023-02-18T07:10:28.871Z,2.50
2023-02-18T07:11:32.681Z,2.75
2023-02-18T07:12:37.667Z,2.00
2023-02-18T07:13:58.204Z,2.50
2023-02-18T07:15:01.952Z,3.00
2023-02-18T07:16:08.916Z,3.00
2023-02-18T07:17:13.993Z,3.00
2023-02-18T07:18:17.732Z,3.25
2023-02-18T07:19:21.594Z,3.75
2023-02-18T07:20:25.198Z,3.50
2023-02-18T07:21:28.919Z,3.50
2023-02-18T07:22:33.023Z,2.75
2023-02-18T07:23:36.792Z,2.50
2023-02-18T07:24:40.551Z,2.75
2023-02-18T07:25:44.231Z,2.25
2023-02-18T07:26:48.062Z,2.00
2023-02-18T07:27:51.738Z,2.25
2023-02-18T07:28:55.438Z,2.50
2023-02-18T07:29:59.363Z,2.50
2023-02-18T07:31:03.540Z,2.50
2023-02-18T07:32:07.675Z,3.50
2023-02-18T07:33:11.246Z,3.00
2023-02-18T07:34:15.136Z,2.50
2023-02-18T07:35:19.134Z,2.75
2023-02-18T07:36:22.905Z,4.25
2023-02-18T07:37:26.833Z,4.50
2023-02-18T07:38:30.814Z,4.50
2023-02-18T07:39:42.005Z,4.50
2023-02-18T07:40:46.930Z,3.50
2023-02-18T07:41:50.382Z,3.50
2023-02-18T07:42:53.830Z,2.75
2023-02-18T07:43:57.389Z,2.50
2023-02-18T07:45:00.861Z,3.00
2023-02-18T07:46:04.413Z,2.00
2023-02-18T07:47:08.065Z,1.00
2023-02-18T07:48:11.570Z,1.00
2023-02-18T07:49:15.095Z,2.50
2023-02-18T07:50:18.616Z,2.50
2023-02-18T07:51:22.096Z,1.25
2023-02-18T07:52:26.812Z,1.00
2023-02-18T07:53:30.400Z,1.50
2023-02-18T07:54:34.094Z,2.50
2023-02-18T07:55:37.750Z,2.00
2023-02-18T07:56:45.085Z,1.75
2023-02-18T07:57:48.900Z,1.00
2023-02-18T07:58:52.609Z,1.00
2023-02-18T07:59:56.571Z,1.50
2023-02-18T08:01:11.575Z,1.50
2023-02-18T08:02:15.142Z,2.50
2023-02-18T08:03:21.853Z,2.25
2023-02-18T08:04:25.470Z,2.00
2023-02-18T08:05:29.139Z,2.00
2023-02-18T08:06:32.960Z,2.50
2023-02-18T08:07:36.651Z,2.50
2023-02-18T08:08:40.607Z,2.75
2023-02-18T08:09:44.351Z,3.00
2023-02-18T08:10:48.072Z,3.50
2023-02-18T08:11:51.694Z,3.50
2023-02-18T08:12:55.525Z,3.50
2023-02-18T08:13:59.227Z,3.00
2023-02-18T08:15:02.960Z,3.50
2023-02-18T08:16:06.868Z,3.00
2023-02-18T08:17:10.820Z,3.50
2023-02-18T08:18:14.551Z,3.00
2023-02-18T08:19:18.277Z,2.25
2023-02-18T08:20:22.142Z,3.00
2023-02-18T08:21:25.795Z,3.50
2023-02-18T08:22:29.999Z,3.50
2023-02-18T08:23:33.733Z,3.00
2023-02-18T08:24:37.371Z,3.00
2023-02-18T08:25:41.072Z,3.00
2023-02-18T08:26:59.437Z,2.75
2023-02-18T08:27:49.761Z,2.75
2023-02-18T08:28:53.389Z,3.50
2023-02-18T08:29:57.080Z,4.00
2023-02-18T08:31:00.796Z,4.00
2023-02-18T08:32:04.546Z,3.25
2023-02-18T08:33:08.302Z,2.25
2023-02-18T08:34:11.952Z,2.00
2023-02-18T08:35:15.777Z,3.25
2023-02-18T08:36:19.475Z,3.50
2023-02-18T08:37:23.258Z,3.00
2023-02-18T08:38:27.046Z,3.25
2023-02-18T08:39:30.792Z,2.50
2023-02-18T08:40:34.207Z,2.00
2023-02-18T08:41:37.699Z,2.75
2023-02-18T08:42:41.181Z,3.50
2023-02-18T08:43:44.722Z,1.50
2023-02-18T08:44:48.234Z,2.00
2023-02-18T08:45:52.116Z,2.75
2023-02-18T08:46:55.527Z,3.25
2023-02-18T08:48:16.817Z,2.50
2023-02-18T08:49:03.766Z,2.50
2023-02-18T08:50:07.280Z,2.50
2023-02-18T08:51:11.001Z,2.00
2023-02-18T08:52:14.731Z,1.00
2023-02-18T08:53:18.162Z,1.50
2023-02-18T08:54:21.631Z,2.50
2023-02-18T08:55:25.136Z,3.00
2023-02-18T08:56:28.576Z,3.00
2023-02-18T08:57:32.018Z,3.25
2023-02-18T08:58:35.514Z,2.00
2023-02-18T08:59:39.112Z,3.00
2023-02-18T09:00:42.479Z,2.75
2023-02-18T09:01:46.040Z,2.50
2023-02-18T09:02:49.510Z,3.00
2023-02-18T09:03:52.979Z,2.50
2023-02-18T09:04:56.417Z,2.50
2023-02-18T09:05:59.786Z,1.50
2023-02-18T09:07:03.243Z,2.20
2023-02-18T09:08:06.675Z,2.50
2023-02-18T09:09:10.299Z,2.00
2023-02-18T09:10:13.687Z,3.00
2023-02-18T09:11:17.209Z,2.50
2023-02-18T09:12:20.666Z,2.00
2023-02-18T09:13:24.236Z,2.25
2023-02-18T09:14:27.755Z,2.00
2023-02-18T09:15:31.320Z,2.00
2023-02-18T09:16:34.787Z,1.50
2023-02-18T09:17:38.202Z,2.00
2023-02-18T09:18:41.637Z,2.00
2023-02-18T09:19:45.365Z,2.00
2023-02-18T09:20:49.091Z,2.50
2023-02-18T09:21:52.663Z,2.00
2023-02-18T09:23:01.321Z,1.75
2023-02-18T09:24:05.106Z,2.50
2023-02-18T09:25:08.766Z,1.75
2023-02-18T09:26:12.364Z,1.75
2023-02-18T09:27:16.214Z,1.50
2023-02-18T09:28:19.890Z,2.00
2023-02-18T09:29:23.498Z,2.00
2023-02-18T09:30:27.297Z,2.00
2023-02-18T09:31:31.124Z,2.00
2023-02-18T09:32:35.449Z,2.25
2023-02-18T09:33:39.712Z,1.50
2023-02-18T09:34:43.127Z,3.00
2023-02-18T09:35:47.049Z,2.50
2023-02-18T09:36:50.732Z,2.25
2023-02-18T09:37:54.490Z,2.00
2023-02-18T09:38:58.166Z,2.00
2023-02-18T09:40:01.935Z,1.50
2023-02-18T09:41:05.812Z,2.00
2023-02-18T09:42:09.621Z,1.00
2023-02-18T09:43:13.219Z,2.00
2023-02-18T09:44:16.998Z,3.00
2023-02-18T09:45:20.764Z,2.50
2023-02-18T09:46:24.584Z,3.00
2023-02-18T09:47:28.499Z,3.00
2023-02-18T09:48:32.173Z,2.00
2023-02-18T09:49:35.986Z,3.00
2023-02-18T09:50:39.789Z,2.00
2023-02-18T09:51:43.475Z,2.00
2023-02-18T09:52:47.270Z,2.50
2023-02-18T09:53:50.885Z,3.50
2023-02-18T09:54:54.451Z,3.50
2023-02-18T09:55:58.061Z,4.50
2023-02-18T09:57:01.578Z,3.50
2023-02-18T09:58:05.003Z,2.00
2023-02-18T09:59:08.466Z,2.00
2023-02-18T10:00:12.053Z,2.50
2023-02-18T10:01:15.722Z,3.00
2023-02-18T10:02:19.285Z,2.25
2023-02-18T10:03:22.824Z,1.50
2023-02-18T10:04:26.254Z,2.50
2023-02-18T10:05:29.742Z,1.50
2023-02-18T10:06:33.160Z,0.75
2023-02-18T10:07:36.612Z,1.75
2023-02-18T10:08:40.084Z,2.00
2023-02-18T10:09:43.515Z,1.25
2023-02-18T10:10:46.985Z,2.00
2023-02-18T10:11:50.472Z,1.00
2023-02-18T10:12:53.934Z,2.00
2023-02-18T10:13:57.457Z,1.25
2023-02-18T10:15:00.960Z,1.00
2023-02-18T10:16:04.517Z,1.50
2023-02-18T10:17:07.999Z,1.00
2023-02-18T10:18:11.521Z,1.50
2023-02-18T10:19:14.957Z,1.50
2023-02-18T10:20:18.537Z,1.50
2023-02-18T10:21:21.973Z,1.50
2023-02-18T10:22:25.491Z,1.00
2023-02-18T10:23:28.994Z,1.00
2023-02-18T10:24:32.550Z,1.50
2023-02-18T10:25:37.354Z,0.75
2023-02-18T10:26:41.055Z,0.50
2023-02-18T10:27:44.878Z,2.00
2023-02-18T10:28:48.807Z,2.00
2023-02-18T10:29:52.569Z,1.25
2023-02-18T10:30:56.257Z,1.25
2023-02-18T10:32:00.106Z,0.50
2023-02-18T10:33:03.956Z,1.50
2023-02-18T10:34:07.610Z,1.50
2023-02-18T10:35:11.202Z,1.50
2023-02-18T10:36:14.979Z,1.25
2023-02-18T10:37:18.682Z,1.25
2023-02-18T10:38:22.452Z,1.50
2023-02-18T10:39:26.233Z,1.50
2023-02-18T10:40:29.982Z,2.00
2023-02-18T10:41:33.780Z,1.50
2023-02-18T10:42:37.443Z,1.25
2023-02-18T10:43:41.220Z,1.00
2023-02-18T10:44:44.909Z,0.50
2023-02-18T10:45:48.963Z,1.50
2023-02-18T10:46:52.781Z,2.00
2023-02-18T10:47:56.669Z,1.50
2023-02-18T10:49:00.514Z,1.50
2023-02-18T10:50:04.208Z,1.00
2023-02-18T10:51:08.029Z,0.50
2023-02-18T10:52:11.764Z,1.25
2023-02-18T10:53:15.196Z,2.00
2023-02-18T10:54:18.732Z,1.00
2023-02-18T10:55:22.175Z,1.25
2023-02-18T10:56:25.736Z,1.25
2023-02-18T10:57:29.286Z,1.00
2023-02-18T10:58:32.834Z,1.00
2023-02-18T10:59:36.325Z,0.00
2023-02-18T11:00:39.795Z,1.50
2023-02-18T11:01:43.228Z,1.50
2023-02-18T11:02:46.638Z,0.75
2023-02-18T11:03:50.072Z,1.50
2023-02-18T11:04:56.571Z,1.50
2023-02-18T11:06:00.306Z,1.00
2023-02-18T11:07:03.977Z,0.75
2023-02-18T11:08:07.649Z,1.00
2023-02-18T11:09:11.284Z,1.00
2023-02-18T11:10:15.020Z,1.50
2023-02-18T11:11:18.708Z,2.00
2023-02-18T11:12:22.105Z,1.50
2023-02-18T11:13:25.838Z,2.00
2023-02-18T11:14:29.537Z,1.00
2023-02-18T11:15:33.370Z,1.00
2023-02-18T11:16:37.001Z,1.00
2023-02-18T11:17:40.708Z,2.00
2023-02-18T11:18:44.419Z,2.00
2023-02-18T11:19:48.309Z,2.00
2023-02-18T11:20:52.006Z,1.50
2023-02-18T11:21:55.654Z,1.50
2023-02-18T11:22:59.404Z,1.50
2023-02-18T11:24:03.140Z,1.00
2023-02-18T11:25:06.876Z,1.50
2023-02-18T11:26:10.471Z,1.50
2023-02-18T11:27:14.712Z,1.00
2023-02-18T11:28:18.468Z,2.50
2023-02-18T11:29:22.213Z,2.00
2023-02-18T11:30:26.252Z,1.75
2023-02-18T11:31:29.922Z,2.00
2023-02-18T11:32:33.396Z,2.00
2023-02-18T11:33:36.945Z,2.25
2023-02-18T11:34:40.430Z,2.50
2023-02-18T11:35:43.806Z,2.50
2023-02-18T11:36:47.207Z,2.20
2023-02-18T11:37:50.699Z,1.50
2023-02-18T11:38:54.321Z,2.00
2023-02-18T11:39:57.847Z,2.00
2023-02-18T11:41:01.253Z,1.75
2023-02-18T11:42:04.850Z,1.00
2023-02-18T11:43:08.348Z,1.00
2023-02-18T11:44:11.789Z,1.50
2023-02-18T11:45:15.289Z,1.00
2023-02-18T11:46:18.675Z,1.75
2023-02-18T11:47:22.124Z,1.75
2023-02-18T11:48:25.494Z,2.00
2023-02-18T11:49:29.068Z,2.00
2023-02-18T11:50:32.502Z,1.25
2023-02-18T11:51:36.064Z,1.00
2023-02-18T11:52:39.775Z,2.00
2023-02-18T11:53:43.228Z,1.80
2023-02-18T11:54:46.771Z,1.75
2023-02-18T11:55:50.308Z,3.00
2023-02-18T11:56:53.933Z,2.75
2023-02-18T11:57:57.584Z,3.00
2023-02-18T11:59:02.171Z,2.50
2023-02-18T12:00:05.868Z,2.50
2023-02-18T12:01:09.832Z,2.00
2023-02-18T12:02:13.748Z,2.50
2023-02-18T12:03:17.475Z,3.00
2023-02-18T12:04:21.118Z,3.50
2023-02-18T12:05:24.872Z,3.75
2023-02-18T12:06:28.595Z,3.00
2023-02-18T12:07:32.390Z,3.25
2023-02-18T12:08:35.928Z,3.50
2023-02-18T12:09:39.719Z,3.25
2023-02-18T12:10:43.357Z,3.00
2023-02-18T12:11:47.464Z,2.00
2023-02-18T12:12:51.197Z,2.50
2023-02-18T12:13:54.898Z,3.50
2023-02-18T12:14:58.690Z,3.25
2023-02-18T12:16:02.552Z,3.00
2023-02-18T12:17:06.295Z,2.50
2023-02-18T12:18:10.120Z,3.75
2023-02-18T12:19:13.801Z,4.50
2023-02-18T12:20:17.418Z,4.25
2023-02-18T12:21:21.234Z,3.50
2023-02-18T12:22:24.939Z,3.50
2023-02-18T12:23:28.657Z,4.00
2023-02-18T12:24:32.321Z,4.00
2023-02-18T12:25:35.939Z,2.50
2023-02-18T12:26:39.652Z,3.00
2023-02-18T12:27:43.371Z,4.00
2023-02-18T12:28:47.044Z,4.00
2023-02-18T12:29:50.666Z,3.50
2023-02-18T12:30:54.422Z,2.50
2023-02-18T12:31:58.114Z,3.60
2023-02-18T12:33:02.110Z,3.75
2023-02-18T12:34:05.792Z,3.50
2023-02-18T12:35:09.412Z,4.75
2023-02-18T12:36:13.099Z,5.25
2023-02-18T12:37:16.856Z,5.50
2023-02-18T12:38:21.681Z,5.75
2023-02-18T12:39:25.363Z,6.00
2023-02-18T12:40:29.083Z,6.50
2023-02-18T12:41:32.810Z,6.75
2023-02-18T12:42:36.541Z,5.75
2023-02-18T12:43:40.371Z,7.25
2023-02-18T12:44:45.317Z,6.75
2023-02-18T12:45:48.742Z,6.50
2023-02-18T12:46:52.145Z,6.50
2023-02-18T12:47:55.577Z,5.25
2023-02-18T12:48:59.060Z,5.20
2023-02-18T12:50:02.481Z,5.00
2023-02-18T12:51:06.168Z,6.50
2023-02-18T12:52:09.892Z,6.50
2023-02-18T12:53:13.355Z,6.50
2023-02-18T12:54:16.851Z,7.75
2023-02-18T12:55:20.313Z,8.00
2023-02-18T12:56:23.746Z,8.00
2023-02-18T12:57:27.274Z,7.50
2023-02-18T12:58:30.733Z,6.50
2023-02-18T12:59:34.280Z,7.75
2023-02-18T13:00:37.706Z,6.50
2023-02-18T13:01:41.165Z,6.00
2023-02-18T13:02:44.598Z,7.00
2023-02-18T13:03:48.083Z,7.00
2023-02-18T13:04:51.509Z,6.00
2023-02-18T13:05:54.942Z,6.25
2023-02-18T13:06:58.371Z,6.75
2023-02-18T13:08:02.015Z,6.00
2023-02-18T13:09:05.715Z,5.50
2023-02-18T13:10:11.344Z,5.50
2023-02-18T13:11:14.115Z,5.00
2023-02-18T13:12:17.788Z,5.50
2023-02-18T13:13:21.430Z,6.00
2023-02-18T13:14:25.095Z,6.00
2023-02-18T13:15:28.698Z,6.50
2023-02-18T13:16:32.404Z,6.00
2023-02-18T13:17:36.057Z,5.75
2023-02-18T13:18:39.826Z,6.50
2023-02-18T13:19:43.589Z,5.50
2023-02-18T13:20:47.297Z,6.50
2023-02-18T13:21:51.051Z,7.00
2023-02-18T13:22:54.697Z,7.00
2023-02-18T13:23:58.353Z,6.25
2023-02-18T13:25:02.034Z,5.50
2023-02-18T13:26:05.642Z,6.25
2023-02-18T13:27:09.332Z,6.75
2023-02-18T13:28:12.928Z,6.00
2023-02-18T13:29:16.621Z,6.75
2023-02-18T13:30:20.362Z,5.25
2023-02-18T13:31:24.163Z,5.50
2023-02-18T13:32:27.973Z,6.00
2023-02-18T13:33:31.669Z,5.00
2023-02-18T13:34:35.289Z,5.00
2023-02-18T13:35:38.948Z,5.00
2023-02-18T13:36:42.677Z,4.50
2023-02-18T13:37:46.434Z,5.50
2023-02-18T13:38:50.164Z,6.00
2023-02-18T13:39:53.813Z,6.50
2023-02-18T13:40:57.450Z,7.00
2023-02-18T13:42:01.235Z,7.50
2023-02-18T13:43:04.780Z,6.00
2023-02-18T13:44:08.113Z,6.50
2023-02-18T13:45:11.482Z,8.25
2023-02-18T13:46:14.951Z,7.00
2023-02-18T13:47:18.423Z,6.75
2023-02-18T13:48:21.866Z,6.75
2023-02-18T13:49:25.283Z,6.50
2023-02-18T13:50:28.720Z,7.00
2023-02-18T13:51:32.204Z,7.25
2023-02-18T13:52:35.830Z,8.25
2023-02-18T13:53:39.304Z,8.50
2023-02-18T13:54:42.750Z,8.25
2023-02-18T13:55:46.160Z,8.50
2023-02-18T13:56:52.794Z,8.50
2023-02-18T13:57:56.481Z,8.75
2023-02-18T13:59:00.403Z,8.50
2023-02-18T14:00:04.034Z,7.00
2023-02-18T14:01:07.865Z,8.00
2023-02-18T14:02:11.920Z,8.00
2023-02-18T14:03:15.587Z,8.00
2023-02-18T14:04:19.155Z,9.50
2023-02-18T14:05:22.502Z,7.75
2023-02-18T14:06:25.944Z,7.00
2023-02-18T14:07:29.328Z,8.00
2023-02-18T14:08:32.754Z,9.00
2023-02-18T14:09:36.121Z,8.00
2023-02-18T14:10:39.624Z,6.50
2023-02-18T14:11:43.102Z,7.50
2023-02-18T14:12:46.517Z,8.33
2023-02-18T14:13:49.984Z,8.00
2023-02-18T14:14:53.379Z,8.00